createdAt,value
2023-05-21T00:04:45.125Z,11.20
2023-05-21T00:09:50.334Z,11.27
2023-05-21T00:14:55.733Z,10.53
2023-05-21T00:20:02.455Z,11.87
2023-05-21T00:25:08.120Z,20.33
2023-05-21T00:30:13.727Z,12.27
2023-05-21T00:35:19.753Z,13.83
2023-05-21T00:40:25.154Z,18.10
2023-05-21T00:45:30.417Z,13.80
2023-05-21T00:50:36.309Z,17.33
2023-05-21T00:55:42.511Z,16.13
2023-05-21T01:00:48.521Z,16.60
2023-05-21T01:05:56.262Z,22.13
2023-05-21T01:11:02.964Z,16.50
2023-05-21T01:16:09.808Z,11.77
2023-05-21T01:21:17.607Z,15.27
2023-05-21T01:26:24.675Z,9.63
2023-05-21T01:31:33.740Z,16.93
2023-05-21T01:36:42.501Z,17.30
2023-05-21T01:41:49.458Z,13.97
2023-05-21T01:46:57.266Z,20.60
2023-05-21T01:52:02.786Z,10.20
2023-05-21T01:57:08.745Z,12.50
2023-05-21T02:02:14.181Z,15.17
2023-05-21T02:07:20.019Z,13.50
2023-05-21T02:12:26.292Z,15.07
2023-05-21T02:17:33.289Z,11.33
2023-05-21T02:22:43.611Z,15.37
2023-05-21T02:27:51.008Z,13.37
2023-05-21T02:32:59.341Z,13.57
2023-05-21T02:38:04.700Z,18.70
2023-05-21T02:43:09.981Z,16.77
2023-05-21T02:48:15.330Z,10.17
2023-05-21T02:53:20.640Z,11.60
2023-05-21T02:58:26.352Z,15.80
2023-05-21T03:03:32.833Z,10.30
2023-05-21T03:08:38.981Z,10.03
2023-05-21T03:13:44.275Z,11.23
2023-05-21T03:18:49.678Z,12.57
2023-05-21T03:23:56.596Z,9.97
2023-05-21T03:29:01.709Z,15.33
2023-05-21T03:34:08.764Z,10.97
2023-05-21T03:39:14.275Z,9.20
2023-05-21T03:44:19.503Z,11.27
2023-05-21T03:49:24.703Z,13.07
2023-05-21T03:54:30.009Z,10.67
2023-05-21T03:59:35.896Z,10.33
2023-05-21T04:04:41.291Z,9.40
2023-05-21T04:09:47.315Z,12.50
2023-05-21T04:14:52.558Z,14.10
2023-05-21T04:19:58.828Z,13.23
2023-05-21T04:25:04.066Z,9.20
2023-05-21T04:30:19.314Z,10.73
2023-05-21T04:35:25.200Z,14.77
2023-05-21T04:40:30.597Z,8.13
2023-05-21T04:45:36.151Z,9.67
2023-05-21T04:50:41.767Z,7.70
2023-05-21T04:55:47.462Z,6.83
2023-05-21T05:00:54.599Z,5.23
2023-05-21T05:05:59.957Z,5.23
2023-05-21T05:11:05.355Z,10.33
2023-05-21T05:16:10.691Z,11.73
2023-05-21T05:21:16.008Z,13.30
2023-05-21T05:26:21.862Z,5.33
2023-05-21T05:31:27.399Z,6.27
2023-05-21T05:36:33.792Z,5.83
2023-05-21T05:41:39.231Z,6.37
2023-05-21T05:46:44.639Z,6.20
2023-05-21T05:51:52.884Z,6.03
2023-05-21T05:57:02.625Z,5.43
2023-05-21T06:02:12.166Z,5.70
2023-05-21T06:07:24.641Z,8.90
2023-05-21T06:12:30.169Z,6.03
2023-05-21T06:17:36.794Z,12.43
2023-05-21T06:22:42.167Z,8.43
2023-05-21T06:27:48.501Z,5.12
2023-05-21T06:32:56.291Z,3.22
2023-05-21T06:38:02.296Z,7.33
2023-05-21T06:43:08.489Z,2.90
2023-05-21T06:48:16.487Z,7.22
2023-05-21T06:53:21.786Z,3.33
2023-05-21T06:58:29.984Z,4.03
2023-05-21T07:03:40.802Z,5.40
2023-05-21T07:08:50.097Z,4.47
2023-05-21T07:14:02.546Z,2.85
2023-05-21T07:19:08.191Z,2.65
2023-05-21T07:24:14.370Z,2.92
2023-05-21T07:29:19.645Z,3.65
2023-05-21T07:34:24.850Z,2.45
2023-05-21T07:45:51.569Z,3.58
2023-05-21T07:50:58.992Z,3.02
2023-05-21T07:56:04.424Z,6.50
2023-05-21T08:01:09.845Z,2.08
2023-05-21T08:06:15.185Z,1.82
2023-05-21T08:11:21.962Z,3.02
2023-05-21T08:16:27.375Z,4.87
2023-05-21T08:21:33.011Z,2.42
2023-05-21T08:26:38.464Z,4.83
2023-05-21T08:31:44.074Z,1.45
2023-05-21T08:36:50.115Z,3.40
2023-05-21T08:41:58.463Z,2.60
2023-05-21T08:47:06.587Z,2.77
2023-05-21T08:52:13.222Z,6.60
2023-05-21T08:57:20.706Z,4.10
2023-05-21T09:02:26.163Z,2.83
2023-05-21T09:07:33.960Z,2.00
2023-05-21T09:12:39.332Z,2.15
2023-05-21T09:17:53.433Z,3.87
2023-05-21T09:23:03.022Z,2.75
2023-05-21T09:28:14.329Z,1.27
2023-05-21T09:33:29.972Z,3.02
2023-05-21T09:38:36.140Z,1.22
2023-05-21T09:43:45.244Z,2.10
2023-05-21T09:48:50.469Z,4.37
2023-05-21T09:54:01.391Z,1.75
2023-05-21T09:59:06.919Z,3.17
2023-05-21T10:04:12.675Z,1.45
2023-05-21T10:09:21.947Z,2.45
2023-05-21T10:14:30.460Z,2.77
2023-05-21T10:19:36.862Z,2.02
2023-05-21T10:24:44.583Z,2.37
2023-05-21T10:29:50.828Z,1.20
2023-05-21T10:34:57.778Z,4.22
2023-05-21T10:40:04.702Z,2.25
2023-05-21T10:45:31.381Z,1.95
2023-05-21T10:50:46.008Z,2.00
2023-05-21T10:56:10.441Z,5.70
2023-05-21T11:01:20.358Z,1.82
2023-05-21T11:06:27.807Z,1.60
2023-05-21T11:11:48.819Z,12.00
2023-05-21T11:16:54.187Z,1.47
2023-05-21T11:21:59.666Z,2.52
2023-05-21T11:27:06.000Z,1.98
2023-05-21T11:32:13.272Z,1.92
2023-05-21T11:37:23.123Z,3.92
2023-05-21T11:42:37.473Z,1.75
2023-05-21T11:47:45.313Z,1.35
2023-05-21T11:52:51.348Z,1.98
2023-05-21T11:57:56.696Z,6.35
2023-05-21T12:03:51.689Z,2.27
2023-05-21T12:08:58.681Z,1.32
2023-05-21T12:14:04.410Z,10.75
2023-05-21T12:19:09.867Z,3.92
2023-05-21T12:24:17.142Z,2.42
2023-05-21T12:29:23.692Z,1.90
2023-05-21T12:34:47.062Z,1.67
2023-05-21T12:39:54.132Z,2.30
2023-05-21T12:45:00.531Z,3.00
2023-05-21T12:50:08.101Z,2.42
2023-05-21T12:55:15.945Z,7.83
2023-05-21T13:00:25.657Z,2.72
2023-05-21T13:05:31.032Z,3.17
2023-05-21T13:10:38.195Z,2.58
2023-05-21T13:15:43.826Z,2.35
2023-05-21T13:20:52.017Z,3.65
2023-05-21T13:25:57.374Z,2.33
2023-05-21T13:31:02.772Z,1.30
2023-05-21T13:36:08.321Z,1.92
2023-05-21T13:41:13.684Z,1.30
2023-05-21T13:46:19.669Z,2.27
2023-05-21T13:56:35.359Z,1.37
2023-05-21T14:01:40.892Z,1.90
2023-05-21T14:06:47.091Z,2.00
2023-05-21T14:11:52.310Z,1.25
2023-05-21T14:16:57.544Z,2.75
2023-05-21T14:22:02.956Z,2.67
2023-05-21T14:27:08.379Z,3.22
2023-05-21T14:32:13.819Z,5.25
2023-05-21T14:37:19.164Z,2.17
2023-05-21T14:42:24.497Z,1.30
2023-05-21T14:47:30.318Z,4.78
2023-05-21T14:52:35.781Z,1.65
2023-05-21T14:57:41.168Z,2.42
2023-05-21T15:02:46.488Z,8.35
2023-05-21T15:07:51.917Z,2.15
2023-05-21T15:12:57.325Z,1.90
2023-05-21T15:18:03.046Z,1.65
2023-05-21T15:23:16.801Z,2.98
2023-05-21T15:28:16.032Z,5.12
2023-05-21T15:33:21.403Z,5.60
2023-05-21T15:38:26.734Z,6.28
2023-05-21T15:43:33.897Z,2.05
2023-05-21T15:48:39.552Z,4.17
2023-05-21T15:53:44.761Z,2.00
2023-05-21T15:58:56.395Z,5.42
2023-05-21T16:04:03.531Z,1.80
2023-05-21T16:09:08.844Z,2.42
2023-05-21T16:14:14.137Z,2.30
2023-05-21T16:19:19.795Z,5.47
2023-05-21T16:24:25.604Z,4.90
2023-05-21T16:29:30.759Z,8.90
2023-05-21T16:34:36.423Z,6.20
2023-05-21T16:39:42.013Z,5.70
2023-05-21T16:44:48.602Z,2.15
2023-05-21T16:49:55.983Z,4.15
2023-05-21T16:55:01.347Z,2.30
2023-05-21T17:00:08.075Z,2.47
2023-05-21T17:05:13.492Z,2.50
2023-05-21T17:10:19.738Z,2.50
2023-05-21T17:15:24.851Z,4.22
2023-05-21T17:20:30.575Z,6.95
2023-05-21T17:25:35.946Z,2.50
2023-05-21T17:30:41.533Z,4.62
2023-05-21T17:35:46.765Z,3.83
2023-05-21T17:40:51.972Z,3.12
2023-05-21T17:45:57.648Z,6.05
2023-05-21T17:51:03.128Z,5.15
2023-05-21T18:16:55.874Z,5.10
2023-05-21T18:22:01.328Z,2.83
2023-05-21T18:27:09.831Z,4.83
2023-05-21T18:32:16.809Z,8.57
2023-05-21T18:37:22.160Z,9.03
2023-05-21T18:42:28.318Z,4.43
2023-05-21T18:47:33.777Z,6.53
2023-05-21T18:52:40.003Z,6.83
2023-05-21T18:57:50.488Z,9.07
2023-05-21T19:02:56.936Z,6.50
2023-05-21T19:08:02.388Z,5.53
2023-05-21T19:13:07.968Z,8.17
2023-05-21T19:18:15.332Z,10.13
2023-05-21T19:23:21.244Z,5.70
2023-05-21T19:28:26.605Z,8.17
2023-05-21T19:33:32.112Z,7.43
2023-05-21T19:38:39.663Z,6.47
2023-05-21T19:43:45.644Z,7.83
2023-05-21T19:48:52.410Z,14.23
2023-05-21T19:53:57.981Z,8.17
2023-05-21T19:59:04.652Z,13.10
2023-05-21T20:04:10.414Z,8.17
2023-05-21T20:09:17.057Z,7.00
2023-05-21T20:14:22.367Z,15.63
2023-05-21T20:19:28.261Z,8.43
2023-05-21T20:24:33.544Z,8.70
2023-05-21T20:29:38.810Z,10.63
2023-05-21T20:35:01.610Z,10.07
2023-05-21T20:39:53.677Z,11.23
2023-05-21T20:45:00.469Z,5.50
2023-05-21T20:50:06.435Z,12.27
2023-05-21T20:55:13.149Z,10.77
2023-05-21T21:00:18.637Z,7.07
2023-05-21T21:05:24.534Z,5.87
2023-05-21T21:10:29.943Z,8.70
2023-05-21T21:15:36.845Z,5.87
2023-05-21T21:20:43.024Z,10.10
2023-05-21T21:25:48.409Z,7.30
2023-05-21T21:30:53.808Z,9.80
2023-05-21T21:35:59.064Z,10.30
2023-05-21T21:41:04.447Z,9.27
2023-05-21T21:46:09.672Z,6.20
2023-05-21T21:51:15.708Z,5.03
2023-05-21T21:56:22.440Z,7.33
2023-05-21T22:01:27.780Z,6.47
2023-05-21T22:06:33.275Z,12.43
2023-05-21T22:11:39.285Z,4.67
2023-05-21T22:16:44.769Z,7.43
2023-05-21T22:21:50.285Z,9.37
2023-05-21T22:26:56.040Z,13.87
2023-05-21T22:32:01.400Z,8.03
2023-05-21T22:37:06.799Z,11.53
2023-05-21T22:42:12.191Z,10.70
2023-05-21T22:47:17.756Z,6.23
2023-05-21T22:52:23.461Z,8.03
2023-05-21T22:57:29.753Z,5.77
2023-05-21T23:02:35.083Z,13.97
2023-05-21T23:07:41.514Z,8.77
2023-05-21T23:12:46.867Z,6.47
2023-05-21T23:17:52.114Z,7.30
2023-05-21T23:22:57.463Z,7.47
2023-05-21T23:28:04.109Z,8.20
2023-05-21T23:33:10.027Z,11.17
2023-05-21T23:38:15.447Z,11.47
2023-05-21T23:43:20.777Z,7.77
2023-05-21T23:48:26.048Z,8.00
2023-05-21T23:53:31.214Z,14.90
2023-05-21T23:58:37.313Z,10.53
